sensor_id;sensor_type;location;lat;lon;timestamp;pressure;altitude;pressure_sealevel;temperature;humidity
70229;BME280;57617;51.988;5.854;2022-09-01T00:01:02;101675.19;;;19.85;49.91
70229;BME280;57617;51.988;5.854;2022-09-01T00:03:30;101675.47;;;19.83;50.09
70229;BME280;57617;51.988;5.854;2022-09-01T00:05:56;101663.88;;;19.81;50.44
70229;BME280;57617;51.988;5.854;2022-09-01T00:08:22;101668.31;;;19.77;50.39
70229;BME280;57617;51.988;5.854;2022-09-01T00:10:48;101670.25;;;19.72;50.51
70229;BME280;57617;51.988;5.854;2022-09-01T00:13:14;101665.59;;;19.67;50.56
70229;BME280;57617;51.988;5.854;2022-09-01T00:15:40;101670.00;;;19.68;50.90
70229;BME280;57617;51.988;5.854;2022-09-01T00:18:05;101663.94;;;19.66;50.66
70229;BME280;57617;51.988;5.854;2022-09-01T00:20:31;101661.47;;;19.65;50.68
70229;BME280;57617;51.988;5.854;2022-09-01T00:22:56;101673.03;;;19.62;50.88
70229;BME280;57617;51.988;5.854;2022-09-01T00:25:22;101664.25;;;19.60;50.78
70229;BME280;57617;51.988;5.854;2022-09-01T00:27:49;101660.94;;;19.53;51.06
70229;BME280;57617;51.988;5.854;2022-09-01T00:30:16;101669.19;;;19.53;51.19
70229;BME280;57617;51.988;5.854;2022-09-01T00:32:41;101666.75;;;19.51;51.25
70229;BME280;57617;51.988;5.854;2022-09-01T00:35:14;101666.19;;;19.49;51.24
70229;BME280;57617;51.988;5.854;2022-09-01T00:37:39;101667.56;;;19.47;51.41
70229;BME280;57617;51.988;5.854;2022-09-01T00:40:05;101662.06;;;19.47;51.16
70229;BME280;57617;51.988;5.854;2022-09-01T00:42:31;101665.66;;;19.42;51.46
70229;BME280;57617;51.988;5.854;2022-09-01T00:44:56;101661.25;;;19.41;51.68
70229;BME280;57617;51.988;5.854;2022-09-01T00:47:21;101657.94;;;19.39;51.20
70229;BME280;57617;51.988;5.854;2022-09-01T00:49:48;101653.28;;;19.35;51.78
70229;BME280;57617;51.988;5.854;2022-09-01T00:52:20;101650.25;;;19.31;51.94
70229;BME280;57617;51.988;5.854;2022-09-01T00:54:54;101656.84;;;19.30;52.29
70229;BME280;57617;51.988;5.854;2022-09-01T00:57:23;101652.72;;;19.28;51.69
70229;BME280;57617;51.988;5.854;2022-09-01T00:59:52;101651.91;;;19.27;52.12
70229;BME280;57617;51.988;5.854;2022-09-01T01:02:19;101655.47;;;19.28;51.75
70229;BME280;57617;51.988;5.854;2022-09-01T01:04:44;101657.94;;;19.24;51.78
70229;BME280;57617;51.988;5.854;2022-09-01T01:07:10;101656.56;;;19.22;52.04
70229;BME280;57617;51.988;5.854;2022-09-01T01:09:39;101650.22;;;19.16;52.04
70229;BME280;57617;51.988;5.854;2022-09-01T01:12:06;101652.97;;;19.16;52.12
70229;BME280;57617;51.988;5.854;2022-09-01T01:14:34;101642.78;;;19.12;52.11
70229;BME280;57617;51.988;5.854;2022-09-01T01:17:00;101656.00;;;19.10;52.05
70229;BME280;57617;51.988;5.854;2022-09-01T01:19:43;101647.47;;;19.11;52.75
70229;BME280;57617;51.988;5.854;2022-09-01T01:22:47;101648.03;;;19.03;52.59
70229;BME280;57617;51.988;5.854;2022-09-01T01:25:31;101655.47;;;19.08;51.86
70229;BME280;57617;51.988;5.854;2022-09-01T01:28:09;101643.09;;;19.05;52.33
70229;BME280;57617;51.988;5.854;2022-09-01T01:30:37;101646.66;;;19.11;52.01
70229;BME280;57617;51.988;5.854;2022-09-01T01:33:04;101642.25;;;19.10;51.64
70229;BME280;57617;51.988;5.854;2022-09-01T01:35:30;101648.88;;;19.09;51.87
70229;BME280;57617;51.988;5.854;2022-09-01T01:37:58;101647.47;;;19.11;51.63
70229;BME280;57617;51.988;5.854;2022-09-01T01:40:26;101649.97;;;19.13;51.59
70229;BME280;57617;51.988;5.854;2022-09-01T01:42:53;101652.72;;;19.13;51.42
70229;BME280;57617;51.988;5.854;2022-09-01T01:45:21;101654.38;;;19.09;51.57
70229;BME280;57617;51.988;5.854;2022-09-01T01:47:48;101649.41;;;19.11;51.42
70229;BME280;57617;51.988;5.854;2022-09-01T01:50:19;101654.91;;;19.11;51.52
70229;BME280;57617;51.988;5.854;2022-09-01T01:52:44;101644.72;;;19.11;51.20
70229;BME280;57617;51.988;5.854;2022-09-01T01:55:10;101644.16;;;19.04;51.47
70229;BME280;57617;51.988;5.854;2022-09-01T01:57:40;101655.47;;;19.13;51.13
70229;BME280;57617;51.988;5.854;2022-09-01T02:00:13;101656.00;;;19.15;51.34
70229;BME280;57617;51.988;5.854;2022-09-01T02:02:46;101653.25;;;19.15;51.03
70229;BME280;57617;51.988;5.854;2022-09-01T02:05:17;101652.16;;;19.16;51.12
70229;BME280;57617;51.988;5.854;2022-09-01T02:07:49;101656.00;;;19.15;50.97
70229;BME280;57617;51.988;5.854;2022-09-01T02:10:15;101643.88;;;19.16;50.91
70229;BME280;57617;51.988;5.854;2022-09-01T02:12:40;101660.13;;;19.17;50.80
70229;BME280;57617;51.988;5.854;2022-09-01T02:15:07;101649.41;;;19.16;50.94
70229;BME280;57617;51.988;5.854;2022-09-01T02:17:33;101656.00;;;19.20;50.89
70229;BME280;57617;51.988;5.854;2022-09-01T02:19:58;101658.75;;;19.20;50.46
70229;BME280;57617;51.988;5.854;2022-09-01T02:22:23;101655.75;;;19.16;50.11
70229;BME280;57617;51.988;5.854;2022-09-01T02:24:49;101664.28;;;19.20;50.11
70229;BME280;57617;51.988;5.854;2022-09-01T02:27:17;101658.75;;;19.20;50.41
70229;BME280;57617;51.988;5.854;2022-09-01T02:29:47;101659.03;;;19.18;50.13
70229;BME280;57617;51.988;5.854;2022-09-01T02:32:15;101644.47;;;19.13;50.07
70229;BME280;57617;51.988;5.854;2022-09-01T02:34:43;101658.22;;;19.13;49.99
70229;BME280;57617;51.988;5.854;2022-09-01T02:37:08;101654.38;;;19.14;49.66
70229;BME280;57617;51.988;5.854;2022-09-01T02:39:33;101658.22;;;19.13;50.10
70229;BME280;57617;51.988;5.854;2022-09-01T02:41:59;101652.41;;;19.09;50.22
70229;BME280;57617;51.988;5.854;2022-09-01T02:44:26;101650.50;;;19.10;50.07
70229;BME280;57617;51.988;5.854;2022-09-01T02:46:53;101648.88;;;19.09;50.12
70229;BME280;57617;51.988;5.854;2022-09-01T02:49:21;101648.88;;;19.09;49.85
70229;BME280;57617;51.988;5.854;2022-09-01T02:51:53;101655.47;;;19.08;49.97
70229;BME280;57617;51.988;5.854;2022-09-01T02:54:22;101657.66;;;19.06;49.97
70229;BME280;57617;51.988;5.854;2022-09-01T02:56:49;101648.88;;;19.04;49.99
70229;BME280;57617;51.988;5.854;2022-09-01T02:59:17;101652.16;;;19.06;49.97
70229;BME280;57617;51.988;5.854;2022-09-01T03:01:46;101652.41;;;19.04;49.87
70229;BME280;57617;51.988;5.854;2022-09-01T03:04:12;101650.50;;;19.00;50.16
70229;BME280;57617;51.988;5.854;2022-09-01T03:06:39;101644.16;;;18.94;50.09
70229;BME280;57617;51.988;5.854;2022-09-01T03:09:07;101650.50;;;18.95;50.13
70229;BME280;57617;51.988;5.854;2022-09-01T03:11:36;101638.97;;;18.88;50.18
70229;BME280;57617;51.988;5.854;2022-09-01T03:14:02;101642.25;;;18.90;50.18
70229;BME280;57617;51.988;5.854;2022-09-01T03:16:28;101647.22;;;18.88;50.33
70229;BME280;57617;51.988;5.854;2022-09-01T03:18:54;101643.88;;;18.86;50.21
70229;BME280;57617;51.988;5.854;2022-09-01T03:21:20;101654.09;;;18.85;49.93
70229;BME280;57617;51.988;5.854;2022-09-01T03:23:47;101649.13;;;18.87;49.86
70229;BME280;57617;51.988;5.854;2022-09-01T03:26:13;101655.75;;;18.86;49.86
70229;BME280;57617;51.988;5.854;2022-09-01T03:28:40;101646.91;;;18.84;49.81
70229;BME280;57617;51.988;5.854;2022-09-01T03:31:05;101656.53;;;18.82;49.72
70229;BME280;57617;51.988;5.854;2022-09-01T03:33:31;101650.50;;;18.80;49.82
70229;BME280;57617;51.988;5.854;2022-09-01T03:35:57;101652.44;;;18.74;49.88
70229;BME280;57617;51.988;5.854;2022-09-01T03:38:24;101649.97;;;18.78;49.54
70229;BME280;57617;51.988;5.854;2022-09-01T03:40:54;101651.88;;;18.77;49.75
70229;BME280;57617;51.988;5.854;2022-09-01T03:43:25;101649.38;;;18.76;49.43
70229;BME280;57617;51.988;5.854;2022-09-01T03:45:52;101648.31;;;18.77;49.46
70229;BME280;57617;51.988;5.854;2022-09-01T03:48:20;101649.13;;;18.77;49.31
70229;BME280;57617;51.988;5.854;2022-09-01T03:50:46;101644.72;;;18.76;49.42
70229;BME280;57617;51.988;5.854;2022-09-01T03:53:17;101650.22;;;18.76;49.40
70229;BME280;57617;51.988;5.854;2022-09-01T03:55:46;101643.09;;;18.75;49.28
70229;BME280;57617;51.988;5.854;2022-09-01T03:58:14;101645.56;;;18.72;49.18
70229;BME280;57617;51.988;5.854;2022-09-01T04:00:47;101644.72;;;18.66;49.16
70229;BME280;57617;51.988;5.854;2022-09-01T04:03:14;101638.94;;;18.68;49.05
70229;BME280;57617;51.988;5.854;2022-09-01T04:05:46;101634.81;;;18.65;49.17
70229;BME280;57617;51.988;5.854;2022-09-01T04:08:12;101640.31;;;18.65;49.11
70229;BME280;57617;51.988;5.854;2022-09-01T04:10:49;101638.66;;;18.64;48.81
70229;BME280;57617;51.988;5.854;2022-09-01T04:13:22;101624.34;;;18.62;48.86
70229;BME280;57617;51.988;5.854;2022-09-01T04:15:49;101629.84;;;18.62;48.79
70229;BME280;57617;51.988;5.854;2022-09-01T04:18:15;101630.09;;;18.56;48.49
70229;BME280;57617;51.988;5.854;2022-09-01T04:20:49;101634.81;;;18.65;48.58
70229;BME280;57617;51.988;5.854;2022-09-01T04:23:18;101629.31;;;18.65;48.55
70229;BME280;57617;51.988;5.854;2022-09-01T04:26:05;101635.91;;;18.64;48.37
70229;BME280;57617;51.988;5.854;2022-09-01T04:28:35;101634.53;;;18.67;48.21
70229;BME280;57617;51.988;5.854;2022-09-01T04:31:03;101630.41;;;18.69;48.15
70229;BME280;57617;51.988;5.854;2022-09-01T04:33:32;101623.81;;;18.70;47.98
70229;BME280;57617;51.988;5.854;2022-09-01T04:36:04;101629.56;;;18.69;47.85
70229;BME280;57617;51.988;5.854;2022-09-01T04:38:30;101627.94;;;18.68;47.89
70229;BME280;57617;51.988;5.854;2022-09-01T04:40:56;101626.00;;;18.68;48.04
70229;BME280;57617;51.988;5.854;2022-09-01T04:43:23;101615.53;;;18.65;48.15
70229;BME280;57617;51.988;5.854;2022-09-01T04:45:49;101629.31;;;18.65;48.01
70229;BME280;57617;51.988;5.854;2022-09-01T04:48:17;101635.63;;;18.66;48.03
70229;BME280;57617;51.988;5.854;2022-09-01T04:50:42;101636.19;;;18.68;47.83
70229;BME280;57617;51.988;5.854;2022-09-01T04:53:09;101629.56;;;18.69;47.62
70229;BME280;57617;51.988;5.854;2022-09-01T04:55:38;101632.59;;;18.67;47.78
70229;BME280;57617;51.988;5.854;2022-09-01T04:58:04;101631.78;;;18.67;47.76
70229;BME280;57617;51.988;5.854;2022-09-01T05:00:29;101635.34;;;18.67;47.67
70229;BME280;57617;51.988;5.854;2022-09-01T05:02:59;101637.28;;;18.67;47.68
70229;BME280;57617;51.988;5.854;2022-09-01T05:05:35;101631.22;;;18.65;47.63
70229;BME280;57617;51.988;5.854;2022-09-01T05:08:04;101639.19;;;18.61;47.79
70229;BME280;57617;51.988;5.854;2022-09-01T05:10:30;101637.28;;;18.62;47.55
70229;BME280;57617;51.988;5.854;2022-09-01T05:12:57;101641.41;;;18.59;47.52
70229;BME280;57617;51.988;5.854;2022-09-01T05:15:22;101633.97;;;18.60;47.69
70229;BME280;57617;51.988;5.854;2022-09-01T05:17:48;101638.34;;;18.56;47.46
70229;BME280;57617;51.988;5.854;2022-09-01T05:20:13;101652.97;;;18.56;47.66
70229;BME280;57617;51.988;5.854;2022-09-01T05:22:40;101642.22;;;18.55;47.51
70229;BME280;57617;51.988;5.854;2022-09-01T05:25:07;101649.66;;;18.54;47.69
70229;BME280;57617;51.988;5.854;2022-09-01T05:27:39;101651.31;;;18.50;47.79
70229;BME280;57617;51.988;5.854;2022-09-01T05:30:06;101656.78;;;18.45;47.64
70229;BME280;57617;51.988;5.854;2022-09-01T05:32:34;101644.94;;;18.45;47.82
70229;BME280;57617;51.988;5.854;2022-09-01T05:35:02;101654.03;;;18.45;47.69
70229;BME280;57617;51.988;5.854;2022-09-01T05:37:30;101658.16;;;18.43;47.90
70229;BME280;57617;51.988;5.854;2022-09-01T05:39:56;101658.69;;;18.45;47.79
70229;BME280;57617;51.988;5.854;2022-09-01T05:42:21;101653.19;;;18.45;47.67
70229;BME280;57617;51.988;5.854;2022-09-01T05:44:47;101659.81;;;18.49;47.97
70229;BME280;57617;51.988;5.854;2022-09-01T05:47:12;101653.47;;;18.48;47.73
70229;BME280;57617;51.988;5.854;2022-09-01T05:49:37;101643.03;;;18.45;47.53
70229;BME280;57617;51.988;5.854;2022-09-01T05:52:04;101645.50;;;18.42;47.67
70229;BME280;57617;51.988;5.854;2022-09-01T05:54:29;101671.09;;;18.47;47.71
70229;BME280;57617;51.988;5.854;2022-09-01T05:56:56;101663.69;;;18.53;47.55
70229;BME280;57617;51.988;5.854;2022-09-01T05:59:23;101654.09;;;18.70;47.29
70229;BME280;57617;51.988;5.854;2022-09-01T06:01:49;101653.81;;;18.77;47.05
70229;BME280;57617;51.988;5.854;2022-09-01T06:04:16;101654.63;;;18.77;47.00
70229;BME280;57617;51.988;5.854;2022-09-01T06:06:47;101664.25;;;18.80;46.90
70229;BME280;57617;51.988;5.854;2022-09-01T06:09:14;101662.06;;;18.82;47.11
70229;BME280;57617;51.988;5.854;2022-09-01T06:11:42;101669.25;;;18.83;47.00
70229;BME280;57617;51.988;5.854;2022-09-01T06:14:08;101669.25;;;18.83;47.07
70229;BME280;57617;51.988;5.854;2022-09-01T06:16:35;101668.94;;;18.84;46.85
70229;BME280;57617;51.988;5.854;2022-09-01T06:19:01;101672.81;;;18.88;46.83
70229;BME280;57617;51.988;5.854;2022-09-01T06:21:27;101670.63;;;18.90;46.77
70229;BME280;57617;51.988;5.854;2022-09-01T06:23:54;101660.97;;;18.83;46.46
70229;BME280;57617;51.988;5.854;2022-09-01T06:26:23;101674.19;;;18.91;46.64
70229;BME280;57617;51.988;5.854;2022-09-01T06:28:52;101676.94;;;18.96;46.56
70229;BME280;57617;51.988;5.854;2022-09-01T06:31:20;101660.97;;;18.98;46.36
70229;BME280;57617;51.988;5.854;2022-09-01T06:33:49;101673.38;;;19.00;46.25
70229;BME280;57617;51.988;5.854;2022-09-01T06:36:15;101682.44;;;19.01;46.27
70229;BME280;57617;51.988;5.854;2022-09-01T06:38:41;101673.91;;;19.02;46.16
70229;BME280;57617;51.988;5.854;2022-09-01T06:41:07;101675.03;;;19.01;46.15
70229;BME280;57617;51.988;5.854;2022-09-01T06:43:37;101679.69;;;19.01;46.19
70229;BME280;57617;51.988;5.854;2022-09-01T06:46:05;101652.72;;;18.83;46.22
70229;BME280;57617;51.988;5.854;2022-09-01T06:48:30;101686.03;;;19.06;46.15
70229;BME280;57617;51.988;5.854;2022-09-01T06:51:00;101681.91;;;19.14;45.88
70229;BME280;57617;51.988;5.854;2022-09-01T06:53:28;101690.97;;;19.19;45.96
70229;BME280;57617;51.988;5.854;2022-09-01T06:55:55;101688.81;;;19.26;45.96
70229;BME280;57617;51.988;5.854;2022-09-01T06:58:20;101694.34;;;19.31;46.00
70229;BME280;57617;51.988;5.854;2022-09-01T07:00:45;101695.13;;;19.37;46.03
70229;BME280;57617;51.988;5.854;2022-09-01T07:03:13;101689.63;;;19.37;45.82
70229;BME280;57617;51.988;5.854;2022-09-01T07:05:44;101687.13;;;19.40;45.69
70229;BME280;57617;51.988;5.854;2022-09-01T07:08:14;101690.19;;;19.39;46.04
70229;BME280;57617;51.988;5.854;2022-09-01T07:10:46;101691.84;;;19.35;45.70
70229;BME280;57617;51.988;5.854;2022-09-01T07:13:19;101690.19;;;19.34;46.08
70229;BME280;57617;51.988;5.854;2022-09-01T07:15:48;101701.22;;;19.39;45.95
70229;BME280;57617;51.988;5.854;2022-09-01T07:18:15;101698.72;;;19.47;45.97
70229;BME280;57617;51.988;5.854;2022-09-01T07:20:42;101701.19;;;19.54;45.85
70229;BME280;57617;51.988;5.854;2022-09-01T07:23:08;101696.19;;;19.66;45.78
70229;BME280;57617;51.988;5.854;2022-09-01T07:25:40;101693.69;;;19.69;45.73
70229;BME280;57617;51.988;5.854;2022-09-01T07:28:06;101696.97;;;19.81;45.58
70229;BME280;57617;51.988;5.854;2022-09-01T07:30:32;101693.94;;;19.88;45.57
70229;BME280;57617;51.988;5.854;2022-09-01T07:32:58;101694.75;;;19.93;45.47
70229;BME280;57617;51.988;5.854;2022-09-01T07:35:24;101688.66;;;19.96;45.32
70229;BME280;57617;51.988;5.854;2022-09-01T07:37:49;101698.56;;;20.07;45.46
70229;BME280;57617;51.988;5.854;2022-09-01T07:40:17;101700.75;;;20.15;45.44
70229;BME280;57617;51.988;5.854;2022-09-01T07:42:45;101701.25;;;20.22;45.38
70229;BME280;57617;51.988;5.854;2022-09-01T07:45:13;101693.81;;;20.28;45.24
70229;BME280;57617;51.988;5.854;2022-09-01T07:47:39;101693.22;;;20.36;45.15
70229;BME280;57617;51.988;5.854;2022-09-01T07:50:07;101692.88;;;20.42;45.02
70229;BME280;57617;51.988;5.854;2022-09-01T07:52:38;101696.47;;;20.48;44.91
70229;BME280;57617;51.988;5.854;2022-09-01T07:55:14;101710.75;;;20.55;44.48
70229;BME280;57617;51.988;5.854;2022-09-01T07:57:42;101699.44;;;20.56;44.78
70229;BME280;57617;51.988;5.854;2022-09-01T08:00:10;101697.53;;;20.57;44.74
70229;BME280;57617;51.988;5.854;2022-09-01T08:02:36;101698.34;;;20.52;44.79
70229;BME280;57617;51.988;5.854;2022-09-01T08:05:09;101697.81;;;20.50;44.71
70229;BME280;57617;51.988;5.854;2022-09-01T08:07:35;101685.38;;;20.53;44.64
70229;BME280;57617;51.988;5.854;2022-09-01T08:10:03;101695.53;;;20.62;44.71
70229;BME280;57617;51.988;5.854;2022-09-01T08:12:28;101697.97;;;20.69;44.61
70229;BME280;57617;51.988;5.854;2022-09-01T08:14:54;101708.44;;;20.77;44.53
70229;BME280;57617;51.988;5.854;2022-09-01T08:17:19;101700.94;;;20.82;44.27
70229;BME280;57617;51.988;5.854;2022-09-01T08:19:45;101699.53;;;20.90;44.22
70229;BME280;57617;51.988;5.854;2022-09-01T08:22:11;101710.53;;;20.95;44.14
70229;BME280;57617;51.988;5.854;2022-09-01T08:24:37;101695.59;;;20.96;43.85
70229;BME280;57617;51.988;5.854;2022-09-01T08:27:02;101698.31;;;21.01;43.94
70229;BME280;57617;51.988;5.854;2022-09-01T08:29:28;101703.53;;;21.07;43.84
70229;BME280;57617;51.988;5.854;2022-09-01T08:31:53;101698.84;;;21.08;43.73
70229;BME280;57617;51.988;5.854;2022-09-01T08:34:19;101696.59;;;21.10;43.44
70229;BME280;57617;51.988;5.854;2022-09-01T08:36:44;101699.53;;;21.23;43.49
70229;BME280;57617;51.988;5.854;2022-09-01T08:39:10;101699.72;;;21.32;43.06
70229;BME280;57617;51.988;5.854;2022-09-01T08:41:42;101700.22;;;21.39;43.01
70229;BME280;57617;51.988;5.854;2022-09-01T08:47:03;101702.91;;;21.49;42.78
70229;BME280;57617;51.988;5.854;2022-09-01T08:49:30;101703.09;;;21.57;42.84
70229;BME280;57617;51.988;5.854;2022-09-01T08:52:13;101698.03;;;21.64;42.58
70229;BME280;57617;51.988;5.854;2022-09-01T08:54:48;101698.25;;;21.73;42.46
70229;BME280;57617;51.988;5.854;2022-09-01T08:57:36;101693.72;;;21.82;42.08
70229;BME280;57617;51.988;5.854;2022-09-01T09:00:04;101683.94;;;21.89;41.88
70229;BME280;57617;51.988;5.854;2022-09-01T09:02:56;101684.66;;;22.00;41.74
70229;BME280;57617;51.988;5.854;2022-09-01T09:05:48;101688.41;;;22.09;41.62
70229;BME280;57617;51.988;5.854;2022-09-01T09:08:43;101686.34;;;22.19;41.35
70229;BME280;57617;51.988;5.854;2022-09-01T09:16:45;101660.75;;;22.51;39.52
70229;BME280;57617;51.988;5.854;2022-09-01T09:21:47;101673.28;;;22.99;39.92
70229;BME280;57617;51.988;5.854;2022-09-01T09:27:23;101660.09;;;23.28;38.00
70229;BME280;57617;51.988;5.854;2022-09-01T09:30:32;101666.28;;;23.52;37.35
70229;BME280;57617;51.988;5.854;2022-09-01T09:33:05;101654.50;;;23.73;36.85
70229;BME280;57617;51.988;5.854;2022-09-01T09:35:44;101650.00;;;23.91;37.32
70229;BME280;57617;51.988;5.854;2022-09-01T09:41:19;101658.38;;;24.26;35.05
70229;BME280;57617;51.988;5.854;2022-09-01T09:43:48;101653.84;;;24.30;35.41
70229;BME280;57617;51.988;5.854;2022-09-01T09:46:21;101649.03;;;24.36;34.46
70229;BME280;57617;51.988;5.854;2022-09-01T09:48:48;101639.63;;;24.45;35.23
70229;BME280;57617;51.988;5.854;2022-09-01T09:51:16;101634.59;;;24.61;35.09
70229;BME280;57617;51.988;5.854;2022-09-01T09:53:43;101637.31;;;24.74;34.88
70229;BME280;57617;51.988;5.854;2022-09-01T09:56:19;101628.25;;;24.91;33.06
70229;BME280;57617;51.988;5.854;2022-09-01T09:58:47;101631.31;;;25.03;33.57
70229;BME280;57617;51.988;5.854;2022-09-01T10:03:50;101631.41;;;25.20;32.65
70229;BME280;57617;51.988;5.854;2022-09-01T10:06:33;101626.94;;;25.32;31.80
70229;BME280;57617;51.988;5.854;2022-09-01T10:09:02;101627.28;;;25.39;32.33
70229;BME280;57617;51.988;5.854;2022-09-01T10:11:47;101622.75;;;25.52;30.81
70229;BME280;57617;51.988;5.854;2022-09-01T10:14:19;101628.22;;;25.65;31.20
70229;BME280;57617;51.988;5.854;2022-09-01T10:16:46;101627.94;;;25.75;31.53
70229;BME280;57617;51.988;5.854;2022-09-01T10:19:14;101621.59;;;25.83;30.88
70229;BME280;57617;51.988;5.854;2022-09-01T10:21:42;101621.50;;;25.97;30.91
70229;BME280;57617;51.988;5.854;2022-09-01T10:24:17;101621.84;;;26.04;29.39
70229;BME280;57617;51.988;5.854;2022-09-01T10:26:45;101619.25;;;26.07;30.56
70229;BME280;57617;51.988;5.854;2022-09-01T10:29:16;101609.72;;;26.08;30.10
70229;BME280;57617;51.988;5.854;2022-09-01T10:31:44;101622.34;;;26.14;29.94
70229;BME280;57617;51.988;5.854;2022-09-01T10:34:20;101626.94;;;26.19;29.11
70229;BME280;57617;51.988;5.854;2022-09-01T10:36:47;101624.53;;;26.26;29.98
70229;BME280;57617;51.988;5.854;2022-09-01T10:39:16;101625.16;;;26.31;28.95
70229;BME280;57617;51.988;5.854;2022-09-01T10:41:53;101607.97;;;26.29;28.53
70229;BME280;57617;51.988;5.854;2022-09-01T10:44:24;101608.28;;;26.36;28.91
70229;BME280;57617;51.988;5.854;2022-09-01T10:46:55;101609.13;;;26.45;29.44
70229;BME280;57617;51.988;5.854;2022-09-01T10:52:09;101614.56;;;26.59;29.09
70229;BME280;57617;51.988;5.854;2022-09-01T10:57:07;101599.31;;;26.73;29.17
70229;BME280;57617;51.988;5.854;2022-09-01T10:59:34;101602.28;;;26.77;28.78
70229;BME280;57617;51.988;5.854;2022-09-01T11:02:04;101600.78;;;26.79;28.56
70229;BME280;57617;51.988;5.854;2022-09-01T11:07:20;101603.56;;;26.88;28.78
70229;BME280;57617;51.988;5.854;2022-09-01T11:15:42;101596.59;;;27.11;27.97
70229;BME280;57617;51.988;5.854;2022-09-01T11:18:29;101591.56;;;27.04;27.65
70229;BME280;57617;51.988;5.854;2022-09-01T11:21:25;101584.50;;;27.07;27.48
70229;BME280;57617;51.988;5.854;2022-09-01T11:26:56;101590.53;;;27.26;28.08
70229;BME280;57617;51.988;5.854;2022-09-01T11:29:53;101583.94;;;27.39;27.38
70229;BME280;57617;51.988;5.854;2022-09-01T11:32:22;101581.13;;;27.39;28.01
70229;BME280;57617;51.988;5.854;2022-09-01T11:34:50;101576.16;;;27.44;27.71
70229;BME280;57617;51.988;5.854;2022-09-01T11:37:20;101572.88;;;27.51;27.73
70229;BME280;57617;51.988;5.854;2022-09-01T11:39:58;101578.75;;;27.58;27.23
70229;BME280;57617;51.988;5.854;2022-09-01T11:42:31;101569.94;;;27.47;27.47
70229;BME280;57617;51.988;5.854;2022-09-01T11:45:04;101576.16;;;27.53;27.30
70229;BME280;57617;51.988;5.854;2022-09-01T11:47:37;101564.31;;;27.56;26.97
70229;BME280;57617;51.988;5.854;2022-09-01T11:50:28;101543.38;;;27.41;26.90
70229;BME280;57617;51.988;5.854;2022-09-01T11:53:03;101571.53;;;27.57;26.97
70229;BME280;57617;51.988;5.854;2022-09-01T11:55:35;101570.88;;;27.60;26.96
70229;BME280;57617;51.988;5.854;2022-09-01T11:58:03;101555.03;;;27.72;27.31
70229;BME280;57617;51.988;5.854;2022-09-01T12:00:35;101574.09;;;27.79;26.82
70229;BME280;57617;51.988;5.854;2022-09-01T12:03:04;101550.59;;;27.80;27.18
70229;BME280;57617;51.988;5.854;2022-09-01T12:05:35;101553.44;;;27.92;26.87
70229;BME280;57617;51.988;5.854;2022-09-01T12:08:10;101552.78;;;27.95;26.62
70229;BME280;57617;51.988;5.854;2022-09-01T12:10:38;101555.09;;;27.93;26.55
70229;BME280;57617;51.988;5.854;2022-09-01T12:15:48;101559.88;;;27.92;26.81
70229;BME280;57617;51.988;5.854;2022-09-01T12:18:25;101550.97;;;27.99;26.53
70229;BME280;57617;51.988;5.854;2022-09-01T12:20:53;101540.50;;;28.08;26.49
70229;BME280;57617;51.988;5.854;2022-09-01T12:23:34;101538.94;;;28.19;26.33
70229;BME280;57617;51.988;5.854;2022-09-01T12:26:09;101537.44;;;28.21;26.65
70229;BME280;57617;51.988;5.854;2022-09-01T12:28:35;101539.38;;;28.29;26.42
70229;BME280;57617;51.988;5.854;2022-09-01T12:31:11;101539.50;;;28.33;25.85
70229;BME280;57617;51.988;5.854;2022-09-01T12:33:38;101527.66;;;28.36;26.42
70229;BME280;57617;51.988;5.854;2022-09-01T12:36:25;101536.09;;;28.48;25.56
70229;BME280;57617;51.988;5.854;2022-09-01T12:38:53;101537.16;;;28.43;26.26
70229;BME280;57617;51.988;5.854;2022-09-01T12:43:48;101538.44;;;28.46;26.46
70229;BME280;57617;51.988;5.854;2022-09-01T12:46:43;101526.56;;;28.49;26.57
70229;BME280;57617;51.988;5.854;2022-09-01T12:49:17;101521.66;;;28.46;26.18
70229;BME280;57617;51.988;5.854;2022-09-01T12:51:43;101532.31;;;28.52;26.11
70229;BME280;57617;51.988;5.854;2022-09-01T12:54:11;101523.00;;;28.60;26.11
70229;BME280;57617;51.988;5.854;2022-09-01T12:56:37;101521.94;;;28.65;25.90
70229;BME280;57617;51.988;5.854;2022-09-01T12:59:13;101514.06;;;28.67;25.72
70229;BME280;57617;51.988;5.854;2022-09-01T13:01:41;101520.59;;;28.71;25.41
70229;BME280;57617;51.988;5.854;2022-09-01T13:04:28;101514.63;;;28.72;25.66
70229;BME280;57617;51.988;5.854;2022-09-01T13:07:00;101507.75;;;28.70;25.78
70229;BME280;57617;51.988;5.854;2022-09-01T13:09:26;101506.72;;;28.74;25.61
70229;BME280;57617;51.988;5.854;2022-09-01T13:11:51;101497.19;;;28.75;25.10
70229;BME280;57617;51.988;5.854;2022-09-01T13:14:17;101506.13;;;28.69;24.48
70229;BME280;57617;51.988;5.854;2022-09-01T13:16:44;101509.19;;;28.76;24.67
70229;BME280;57617;51.988;5.854;2022-09-01T13:19:09;101499.16;;;28.75;24.67
70229;BME280;57617;51.988;5.854;2022-09-01T13:21:35;101501.25;;;28.78;25.32
70229;BME280;57617;51.988;5.854;2022-09-01T13:24:04;101486.81;;;28.76;24.72
70229;BME280;57617;51.988;5.854;2022-09-01T13:26:31;101497.56;;;28.86;25.02
70229;BME280;57617;51.988;5.854;2022-09-01T13:28:57;101489.72;;;28.79;24.68
70229;BME280;57617;51.988;5.854;2022-09-01T13:31:23;101496.50;;;28.78;24.73
70229;BME280;57617;51.988;5.854;2022-09-01T13:33:48;101483.56;;;28.86;25.03
70229;BME280;57617;51.988;5.854;2022-09-01T13:36:13;101476.09;;;28.90;24.99
70229;BME280;57617;51.988;5.854;2022-09-01T13:38:38;101477.19;;;28.97;24.61
70229;BME280;57617;51.988;5.854;2022-09-01T13:41:04;101465.66;;;28.99;24.48
70229;BME280;57617;51.988;5.854;2022-09-01T13:43:31;101476.16;;;29.02;24.46